Time;durP1;ratioP1;P1;durP2;ratioP2;P2;SDS_P1;SDS_P2;PMS_P1;PMS_P2;Temp;Humidity;BMP_temperature;BMP_pressure;BME280_temperature;BME280_humidity;BME280_pressure;Samples;Min_cycle;Max_cycle;Signal;HPM_P1;HPM_P2
2023/02/28 00:01:34;;;;;;;8.45;6.75;;;7.00;99.90;;;6.42;68.69;102867.75;5031546;28;20493;-68
2023/02/28 00:04:03;;;;;;;11.20;6.65;;;7.00;99.90;;;7.26;68.62;103000.34;5032830;28;20060;-68
2023/02/28 00:06:32;;;;;;;9.48;6.78;;;7.00;99.90;;;7.34;68.57;102998.09;5032496;28;20072;-68
2023/02/28 00:09:00;;;;;;;12.63;7.50;;;7.10;99.90;;;7.32;68.97;102995.38;5032547;28;20069;-68
2023/02/28 00:11:28;;;;;;;9.13;7.00;;;7.10;99.90;;;7.28;68.78;102990.78;5032435;28;20512;-69
2023/02/28 00:13:57;;;;;;;7.30;5.85;;;7.00;99.90;;;7.30;68.67;103000.56;5032315;28;20041;-68
2023/02/28 00:16:25;;;;;;;10.68;6.65;;;7.00;99.90;;;7.29;69.21;103000.50;5032740;28;20533;-69
2023/02/28 00:18:55;;;;;;;8.98;6.53;;;7.10;99.90;;;7.37;69.19;103011.38;5032391;28;20128;-69
2023/02/28 00:21:24;;;;;;;13.73;7.10;;;7.10;99.90;;;7.35;69.23;103013.94;5032621;28;20084;-68
2023/02/28 00:23:52;;;;;;;11.63;7.45;;;7.10;99.90;;;7.30;69.42;103015.44;5032381;28;20311;-69
2023/02/28 00:26:21;;;;;;;13.52;7.32;;;7.10;99.90;;;7.34;69.44;103013.88;5032866;28;20048;-69
2023/02/28 00:28:52;;;;;;;10.63;6.88;;;7.10;99.90;;;7.37;69.66;103014.91;5032509;28;20037;-68
2023/02/28 00:31:20;;;;;;;9.55;6.38;;;7.10;99.90;;;7.32;69.77;103008.53;5032343;28;20550;-68
2023/02/28 00:33:49;;;;;;;8.48;6.88;;;7.10;99.90;;;7.41;69.63;103014.22;5032715;28;20034;-68
2023/02/28 00:36:18;;;;;;;9.13;6.55;;;7.20;99.90;;;7.30;70.17;103013.72;5035216;28;20464;-68
2023/02/28 00:38:47;;;;;;;11.68;6.45;;;7.10;99.90;;;7.39;69.87;103012.34;5034837;28;20088;-68
2023/02/28 00:41:15;;;;;;;7.90;6.00;;;7.20;99.90;;;7.40;70.12;103022.00;5036485;28;20053;-69
2023/02/28 00:43:43;;;;;;;14.48;6.68;;;7.20;99.90;;;7.34;70.47;103021.78;5035045;28;20132;-68
2023/02/28 00:46:12;;;;;;;11.85;6.75;;;7.20;99.90;;;7.41;70.36;103022.09;5036317;28;20033;-69
2023/02/28 00:48:40;;;;;;;9.15;6.20;;;7.20;99.90;;;7.42;70.11;103018.63;5034995;28;20057;-68
2023/02/28 00:51:09;;;;;;;8.32;5.85;;;7.20;99.90;;;7.44;70.26;103019.59;5034943;28;20091;-68
2023/02/28 00:53:38;;;;;;;10.07;6.07;;;7.30;99.90;;;7.47;70.05;103014.44;5034826;28;20054;-68
2023/02/28 00:56:08;;;;;;;9.23;6.37;;;7.30;99.90;;;7.49;69.97;103011.91;5036176;28;20041;-68
2023/02/28 00:58:36;;;;;;;11.48;6.28;;;7.30;99.90;;;7.56;70.08;103014.84;5036104;28;20059;-68
2023/02/28 01:01:05;;;;;;;7.32;6.55;;;7.30;99.90;;;7.51;69.78;103004.97;5035768;28;20103;-69
2023/02/28 01:03:33;;;;;;;10.65;5.72;;;7.30;99.90;;;7.61;69.74;103010.66;5034684;28;20049;-68
2023/02/28 01:06:02;;;;;;;11.20;5.90;;;7.40;99.90;;;7.64;69.87;103010.81;5034663;28;20087;-68
2023/02/28 01:08:30;;;;;;;8.73;6.35;;;7.40;99.90;;;7.61;69.48;103015.94;5035975;28;20037;-69
2023/02/28 01:11:09;;;;;;;10.77;6.10;;;7.40;99.90;;;7.62;69.83;103019.47;5035875;28;20064;-68
2023/02/28 01:13:41;;;;;;;9.80;6.30;;;7.40;99.90;;;7.61;69.94;103026.47;5035942;28;20532;-69
2023/02/28 01:16:13;;;;;;;10.15;6.20;;;7.40;99.90;;;7.60;69.70;103010.59;5051083;28;20246;-68
2023/02/28 01:18:42;;;;;;;9.70;6.22;;;7.40;99.90;;;7.62;69.63;103014.19;5035382;28;20037;-68
2023/02/28 01:21:13;;;;;;;11.55;6.20;;;7.40;99.90;;;7.66;69.59;103024.03;5050966;28;20045;-69
2023/02/28 01:23:42;;;;;;;7.35;5.95;;;7.50;99.90;;;7.70;69.58;103018.06;5034365;28;20045;-68
2023/02/28 01:26:16;;;;;;;11.43;6.85;;;7.50;99.90;;;7.65;69.27;103012.59;5035569;28;20156;-68
2023/02/28 01:28:45;;;;;;;7.28;6.50;;;7.50;99.90;;;7.61;69.61;103015.94;5035263;28;20510;-68
2023/02/28 01:31:13;;;;;;;7.82;6.15;;;7.40;99.90;;;7.64;69.60;103013.44;5035419;28;20480;-68
2023/02/28 01:33:42;;;;;;;10.25;6.47;;;7.40;99.90;;;7.61;69.57;103018.56;5035414;28;20523;-68
2023/02/28 01:36:14;;;;;;;11.60;6.22;;;7.40;99.90;;;7.60;69.84;103013.25;5033893;28;20052;-68
2023/02/28 01:38:43;;;;;;;7.35;6.32;;;7.40;99.90;;;7.64;69.53;103018.72;5034054;28;20053;-68
2023/02/28 01:41:18;;;;;;;10.18;6.43;;;7.40;99.90;;;7.60;69.89;103013.25;5033839;28;20148;-68
2023/02/28 01:44:05;;;;;;;11.75;6.60;;;7.40;99.90;;;7.54;70.05;103010.34;5034026;28;20041;-69
2023/02/28 01:46:36;;;;;;;11.80;6.30;;;7.40;99.90;;;7.58;69.83;103018.44;5034708;28;20053;-68
2023/02/28 01:49:07;;;;;;;;;;;7.40;99.90;;;7.59;70.03;103009.69;5035348;28;20057;-69
2023/02/28 01:51:40;;;;;;;;;;;7.40;99.90;;;7.50;69.98;102998.78;5035900;28;19921;-69
2023/02/28 01:54:16;;;;;;;10.05;5.65;;;7.40;99.90;;;7.57;69.95;102997.31;5034787;28;19927;-68
2023/02/28 01:56:52;;;;;;;6.70;6.00;;;7.40;99.90;;;7.61;69.72;103001.84;5033738;28;20095;-68
2023/02/28 01:59:28;;;;;;;11.38;6.15;;;7.40;99.90;;;7.65;69.54;102999.41;5033717;28;20056;-68
2023/02/28 02:01:56;;;;;;;10.63;6.55;;;7.50;99.90;;;7.59;69.44;102993.91;5033626;28;20045;-68
2023/02/28 02:04:28;;;;;;;8.93;6.63;;;7.40;99.90;;;7.57;69.94;102994.69;5034509;28;20041;-68
2023/02/28 02:06:56;;;;;;;8.52;6.20;;;7.30;99.90;;;7.57;69.84;102982.41;5033614;28;20504;-68
2023/02/28 02:09:24;;;;;;;8.40;6.95;;;7.40;99.90;;;7.62;69.79;102987.88;5033533;28;20049;-68
2023/02/28 02:11:57;;;;;;;8.15;6.55;;;7.40;99.90;;;7.61;69.79;102986.97;5034384;28;20520;-68
2023/02/28 02:14:48;;;;;;;10.02;7.45;;;7.40;99.90;;;7.65;69.86;102988.88;5034671;28;20041;-68
2023/02/28 02:17:27;;;;;;;11.40;7.25;;;7.40;99.90;;;7.66;69.85;102995.97;5034353;28;20496;-68
2023/02/28 02:20:34;;;;;;;11.10;7.00;;;7.50;99.90;;;7.74;70.00;102983.09;5034394;28;20080;-69
2023/02/28 02:24:09;;;;;;;14.27;7.38;;;7.50;99.90;;;7.71;69.86;102983.88;5034343;28;20442;-68
2023/02/28 02:27:02;;;;;;;8.30;7.15;;;7.50;99.90;;;7.67;69.84;102971.41;5034170;28;20046;-68
2023/02/28 02:30:14;;;;;;;11.32;7.45;;;7.50;99.90;;;7.73;69.99;102976.94;5034383;28;20041;-69
2023/02/28 02:33:37;;;;;;;9.15;7.22;;;7.40;99.90;;;7.69;69.78;102955.66;5033095;28;20484;-68
2023/02/28 02:36:14;;;;;;;11.60;7.22;;;7.50;99.90;;;7.72;70.10;102968.97;5033836;28;20061;-69
2023/02/28 02:38:51;;;;;;;10.68;6.75;;;7.50;99.90;;;7.81;70.18;102967.63;5033981;28;20481;-68
2023/02/28 02:41:27;;;;;;;10.82;7.13;;;7.50;99.90;;;7.77;70.26;102965.69;5049407;28;20401;-68
2023/02/28 02:44:04;;;;;;;8.45;7.20;;;7.50;99.90;;;7.68;70.70;102962.69;5032891;28;20408;-68
2023/02/28 02:46:38;;;;;;;9.07;6.88;;;7.50;99.90;;;7.65;70.97;102961.63;5034096;28;20455;-68
2023/02/28 02:49:11;;;;;;;11.55;7.75;;;7.50;99.90;;;7.86;71.11;102968.69;5033808;28;20037;-68
2023/02/28 02:51:42;;;;;;;12.02;7.32;;;7.60;99.90;;;7.87;71.21;102966.97;5049292;28;20554;-68
2023/02/28 02:54:18;;;;;;;12.10;7.40;;;7.60;99.90;;;7.80;71.19;102973.69;5032655;28;20080;-68
2023/02/28 02:56:50;;;;;;;12.55;7.68;;;7.70;99.90;;;7.79;71.28;102961.38;5033010;28;20037;-68
2023/02/28 02:59:23;;;;;;;10.85;8.32;;;7.60;99.90;;;7.81;71.53;102969.34;5033518;28;20465;-69
2023/02/28 03:01:58;;;;;;;11.77;8.10;;;7.60;99.90;;;7.64;71.27;102939.69;5033871;28;20045;-68
2023/02/28 03:04:34;;;;;;;12.13;7.90;;;7.60;99.90;;;7.86;71.53;102976.59;5033564;28;20041;-69
2023/02/28 03:07:04;;;;;;;9.95;7.07;;;7.60;99.90;;;7.79;71.52;102969.28;5049070;28;20103;-68
2023/02/28 03:09:35;;;;;;;13.57;7.80;;;7.50;99.90;;;7.84;71.74;102970.34;5033384;28;20507;-68
2023/02/28 03:12:05;;;;;;;11.52;7.50;;;7.50;99.90;;;7.88;71.36;102972.28;5033325;28;20126;-68
2023/02/28 03:14:48;;;;;;;9.77;7.53;;;7.60;99.90;;;7.85;71.74;102966.00;5033567;28;20508;-68
2023/02/28 03:17:32;;;;;;;11.70;7.32;;;7.60;99.90;;;7.86;71.35;102970.41;5048740;28;20546;-69
2023/02/28 03:20:14;;;;;;;9.85;7.97;;;7.60;99.90;;;7.85;71.71;102974.81;5032236;28;20103;-68
2023/02/28 03:23:07;;;;;;;13.05;7.70;;;7.60;99.90;;;7.85;71.87;102966.00;5032152;28;20455;-68
2023/02/28 03:25:47;;;;;;;10.70;7.75;;;7.60;99.90;;;7.90;71.58;102974.97;5033386;28;20049;-69
2023/02/28 03:28:22;;;;;;;15.85;8.30;;;7.70;99.90;;;7.91;71.95;102975.06;5033118;28;20041;-69
2023/02/28 03:30:56;;;;;;;14.75;8.93;;;7.70;99.90;;;7.84;72.20;102969.47;5033342;28;20041;-69
2023/02/28 03:33:29;;;;;;;13.27;8.90;;;7.70;99.90;;;7.88;72.14;102982.81;5033261;28;20392;-69
2023/02/28 03:36:02;;;;;;;14.93;8.20;;;7.70;99.90;;;7.87;72.83;102980.13;5033201;28;20095;-68
2023/02/28 03:38:37;;;;;;;14.35;7.88;;;7.60;99.90;;;7.93;72.70;102981.28;5048547;28;20056;-69
2023/02/28 03:41:12;;;;;;;11.15;8.40;;;7.60;99.90;;;7.97;72.97;102977.94;5033233;28;20054;-69
2023/02/28 03:43:45;;;;;;;9.77;8.45;;;7.70;99.90;;;7.88;72.99;102972.28;5032875;28;20061;-68
2023/02/28 03:46:23;;;;;;;13.35;8.65;;;7.70;99.90;;;7.89;73.00;102971.47;5032804;28;20497;-68
2023/02/28 03:48:56;;;;;;;9.90;8.50;;;7.70;99.90;;;7.93;73.73;102976.03;5032776;28;20480;-69
2023/02/28 03:51:27;;;;;;;12.02;9.07;;;7.70;99.90;;;7.91;73.30;102976.78;5033247;28;20056;-68
2023/02/28 03:54:04;;;;;;;13.80;8.57;;;7.70;99.90;;;7.93;73.96;102980.38;5033233;28;20064;-69
2023/02/28 03:56:38;;;;;;;12.65;8.70;;;7.70;99.90;;;7.95;73.74;102979.63;5033034;28;20045;-69
2023/02/28 03:59:14;;;;;;;10.32;8.13;;;7.70;99.90;;;7.96;73.64;102973.50;5032695;28;20125;-69
2023/02/28 04:01:45;;;;;;;10.40;9.05;;;7.70;99.90;;;7.90;73.78;102975.88;5033206;28;20365;-68
2023/02/28 04:04:15;;;;;;;12.40;8.60;;;7.70;99.90;;;7.54;75.35;102978.75;5032910;28;20053;-68
2023/02/28 04:06:43;;;;;;;13.45;8.30;;;7.40;99.90;;;7.75;75.53;102975.25;5032514;28;20152;-69
2023/02/28 04:09:15;;;;;;;12.98;9.10;;;7.50;99.90;;;7.75;75.33;102969.09;5032237;28;20041;-69
2023/02/28 04:11:46;;;;;;;15.13;9.50;;;7.50;99.90;;;7.78;75.77;102967.47;5032796;28;20408;-69
2023/02/28 04:14:14;;;;;;;10.98;8.88;;;7.50;99.90;;;7.83;75.55;102963.31;5032509;28;20049;-69
2023/02/28 04:16:43;;;;;;;14.90;8.93;;;7.60;99.90;;;7.88;75.56;102969.66;5032738;28;20132;-69
2023/02/28 04:19:13;;;;;;;14.20;9.35;;;7.60;99.90;;;7.91;75.44;102975.06;5032620;28;20038;-69
2023/02/28 04:21:46;;;;;;;14.53;8.93;;;7.60;99.90;;;7.94;75.20;102968.97;5032450;28;20435;-68
2023/02/28 04:24:18;;;;;;;13.65;9.13;;;7.70;99.90;;;7.81;75.98;102974.59;5031224;28;20053;-69
2023/02/28 04:26:48;;;;;;;15.25;9.40;;;7.60;99.90;;;7.61;76.10;102955.34;5032633;28;20099;-68
2023/02/28 04:29:23;;;;;;;13.60;9.13;;;7.60;99.90;;;7.78;76.10;102978.00;5032429;28;20088;-68
2023/02/28 04:31:52;;;;;;;15.65;9.93;;;7.60;99.90;;;7.77;76.16;102972.69;5032333;28;20052;-69
2023/02/28 04:34:23;;;;;;;18.17;9.17;;;7.50;99.90;;;7.83;76.18;102972.94;5030950;28;20202;-68
2023/02/28 04:36:54;;;;;;;14.82;9.82;;;7.60;99.90;;;7.84;76.06;102983.53;5032265;28;20340;-68
2023/02/28 04:39:42;;;;;;;13.95;8.70;;;7.60;99.90;;;7.76;75.73;102958.59;5032348;28;20100;-68
2023/02/28 04:42:11;;;;;;;15.27;9.48;;;7.60;99.90;;;7.96;75.73;102985.75;5032524;28;20044;-69
2023/02/28 04:44:39;;;;;;;16.67;10.02;;;7.70;99.90;;;7.94;75.96;102992.69;5032154;28;20091;-68
2023/02/28 04:47:07;;;;;;;15.90;10.05;;;7.70;99.90;;;7.97;75.56;102985.84;5032420;28;20077;-68
2023/02/28 04:49:36;;;;;;;11.00;8.90;;;7.70;99.90;;;8.03;75.57;102996.59;5032528;28;20051;-69
2023/02/28 04:52:07;;;;;;;14.63;9.52;;;7.80;99.90;;;8.01;75.75;102995.63;5032387;28;20119;-69
2023/02/28 04:54:35;;;;;;;;;;;7.70;99.90;;;8.06;75.58;103001.09;5032714;28;20571;-68
2023/02/28 04:57:05;;;;;;;14.07;10.10;;;7.80;99.90;;;8.10;75.73;103001.31;5031949;28;20023;-69
2023/02/28 04:59:34;;;;;;;17.38;9.98;;;7.80;99.90;;;8.00;75.85;102998.22;5032604;28;20041;-69
2023/02/28 05:02:06;;;;;;;13.18;8.93;;;7.80;99.90;;;7.84;76.70;102983.53;5031976;28;20038;-69
2023/02/28 05:04:35;;;;;;;16.85;10.32;;;7.70;99.90;;;7.17;77.15;102966.66;5032043;28;20096;-69
2023/02/28 05:07:04;;;;;;;14.70;11.00;;;7.40;99.90;;;7.46;77.96;102988.06;5031956;28;20046;-69
2023/02/28 05:09:33;;;;;;;14.68;10.95;;;7.30;99.90;;;7.62;77.58;102996.69;5031910;28;20546;-69
2023/02/28 05:12:03;;;;;;;16.40;10.70;;;7.40;99.90;;;7.67;77.66;102988.94;5032141;28;20046;-68
2023/02/28 05:14:32;;;;;;;13.98;10.88;;;7.40;99.90;;;7.62;77.01;102988.78;5030853;28;20056;-68
2023/02/28 05:17:00;;;;;;;14.07;10.93;;;7.40;99.90;;;7.67;76.92;102997.75;5031700;28;20580;-69
2023/02/28 05:19:28;;;;;;;12.48;10.55;;;7.40;99.90;;;7.66;76.85;102998.59;5031836;28;20041;-69
2023/02/28 05:21:57;;;;;;;16.48;10.43;;;7.40;99.90;;;7.69;76.74;103006.63;5035496;28;20092;-68
2023/02/28 05:24:25;;;;;;;15.00;10.15;;;7.50;99.90;;;7.53;76.49;102969.94;5034291;28;20455;-68
2023/02/28 05:26:55;;;;;;;16.33;10.55;;;7.50;99.90;;;7.49;76.04;102969.75;5034624;28;20057;-69
2023/02/28 05:29:25;;;;;;;18.95;10.80;;;7.40;99.90;;;7.62;75.97;102994.03;5035316;28;20068;-68
2023/02/28 05:31:53;;;;;;;15.13;10.63;;;7.40;99.90;;;6.95;77.26;102986.72;5035412;28;20504;-68
2023/02/28 05:34:22;;;;;;;15.13;11.70;;;6.90;99.90;;;6.18;79.77;102965.66;5034204;28;20627;-68
2023/02/28 05:36:50;;;;;;;18.55;11.68;;;6.30;99.90;;;5.75;80.84;102985.38;5035056;28;20076;-69
2023/02/28 05:39:18;;;;;;;16.55;11.85;;;5.70;99.90;;;6.02;81.44;102992.00;5034778;28;20188;-68
2023/02/28 05:41:48;;;;;;;16.92;12.35;;;5.70;99.90;;;5.75;81.32;102988.03;5034948;28;20061;-69
2023/02/28 05:44:16;;;;;;;18.95;12.13;;;5.50;99.90;;;5.55;82.33;102990.50;5034971;28;20128;-68
2023/02/28 05:46:46;;;;;;;15.98;12.60;;;5.30;99.90;;;5.42;82.32;102981.09;5035240;28;20485;-68
2023/02/28 05:49:14;;;;;;;17.73;12.23;;;5.20;99.90;;;5.46;82.58;102985.69;5035009;28;20515;-68
2023/02/28 05:51:43;;;;;;;15.23;11.60;;;5.20;99.90;;;5.52;81.98;102970.25;5034911;28;20535;-69
2023/02/28 05:54:11;;;;;;;17.15;12.93;;;5.40;99.90;;;5.47;81.98;102993.66;5034853;28;20049;-68
2023/02/28 05:56:43;;;;;;;23.02;12.43;;;5.30;99.90;;;5.43;81.64;102993.41;5034452;28;20076;-68
2023/02/28 05:59:12;;;;;;;19.63;13.60;;;5.30;99.90;;;5.35;82.33;102960.63;5034812;28;20067;-68
2023/02/28 06:01:47;;;;;;;16.05;12.95;;;5.30;99.90;;;5.36;81.68;102962.44;5034964;28;20069;-68
2023/02/28 06:04:19;;;;;;;15.07;13.03;;;5.30;99.90;;;5.20;82.53;102976.50;5034686;28;20045;-68
2023/02/28 06:06:59;;;;;;;20.13;14.73;;;5.00;99.90;;;4.93;82.65;102982.06;5035187;28;20061;-70
2023/02/28 06:09:27;;;;;;;17.95;12.50;;;4.80;99.90;;;5.05;83.81;102980.06;5034591;28;20107;-69
2023/02/28 06:11:56;;;;;;;22.67;14.90;;;4.80;99.90;;;4.71;84.08;102979.09;5035028;28;20037;-69
2023/02/28 06:14:24;;;;;;;20.10;14.10;;;4.60;99.90;;;4.61;84.64;102946.28;5034474;28;20149;-69
2023/02/28 06:16:53;;;;;;;23.17;14.93;;;4.60;99.90;;;4.78;85.46;102981.25;5034319;28;20038;-69
2023/02/28 06:19:25;;;;;;;24.47;16.03;;;4.50;99.90;;;4.66;84.78;102977.97;5034289;28;20042;-69
2023/02/28 06:21:55;;;;;;;23.53;16.53;;;4.50;99.90;;;4.66;84.89;102978.88;5034320;28;20046;-69
2023/02/28 06:24:27;;;;;;;21.00;15.63;;;4.50;99.90;;;4.90;85.28;102977.53;5034561;28;20121;-69
2023/02/28 06:26:57;;;;;;;17.10;14.10;;;4.60;99.90;;;5.17;83.86;102978.06;5034307;28;20049;-69
2023/02/28 06:29:26;;;;;;;19.38;14.05;;;4.90;99.90;;;5.26;82.64;102975.91;5034182;28;20041;-69
2023/02/28 06:31:54;;;;;;;18.30;14.53;;;5.10;99.90;;;5.18;83.13;102985.13;5033996;28;20033;-69
2023/02/28 06:34:24;;;;;;;20.77;14.73;;;5.00;99.90;;;5.48;83.03;102987.56;5034310;28;20056;-70
2023/02/28 06:36:53;;;;;;;19.65;15.05;;;5.20;99.90;;;5.47;81.85;102984.88;5033976;28;20041;-69
2023/02/28 06:39:21;;;;;;;18.53;14.43;;;5.30;99.90;;;5.52;82.07;102988.59;5034274;28;20504;-68
2023/02/28 06:41:52;;;;;;;19.60;14.27;;;5.30;99.90;;;5.65;82.00;102991.03;5033764;28;20076;-69
2023/02/28 06:44:24;;;;;;;27.10;14.27;;;5.40;99.90;;;5.24;82.65;102991.59;5033956;28;20500;-69
2023/02/28 06:46:52;;;;;;;20.07;14.77;;;5.10;99.90;;;5.15;82.89;102987.59;5034076;28;20551;-69
2023/02/28 06:49:21;;;;;;;18.93;15.60;;;5.00;99.90;;;4.89;84.74;102985.34;5032665;28;20045;-69
2023/02/28 06:51:50;;;;;;;16.83;12.67;;;4.70;99.90;;;4.62;85.26;102970.75;5034238;28;20049;-69
2023/02/28 06:54:19;;;;;;;15.15;13.32;;;4.60;99.90;;;4.34;86.24;102997.19;5033669;28;20088;-69
2023/02/28 06:56:47;;;;;;;20.10;12.80;;;4.20;99.90;;;4.29;87.17;102996.97;5033821;28;20165;-69
2023/02/28 06:59:16;;;;;;;16.77;12.80;;;4.20;99.90;;;4.31;87.16;103002.28;5033847;28;20072;-69
2023/02/28 07:01:44;;;;;;;15.37;12.57;;;4.10;99.90;;;3.97;86.85;102999.47;5033532;28;20053;-69
2023/02/28 07:04:13;;;;;;;17.77;12.63;;;3.90;99.90;;;3.82;87.30;102997.72;5033692;28;20046;-69
2023/02/28 07:06:42;;;;;;;13.93;12.03;;;3.70;99.90;;;3.66;87.68;102990.72;5033346;28;20053;-69
2023/02/28 07:09:13;;;;;;;16.57;12.70;;;3.60;99.90;;;3.98;87.61;103011.78;5033279;28;20103;-69
2023/02/28 07:11:42;;;;;;;15.33;11.87;;;3.70;99.90;;;3.90;87.50;103006.91;5033110;28;20175;-69
2023/02/28 07:14:11;;;;;;;12.82;10.75;;;3.70;99.90;;;3.71;86.75;103007.59;5033453;28;20456;-68
2023/02/28 07:16:39;;;;;;;13.53;10.77;;;3.60;99.90;;;3.70;87.14;103011.00;5033190;28;20060;-68
2023/02/28 07:19:07;;;;;;;16.37;11.20;;;3.50;99.90;;;3.87;86.70;103015.47;5033121;28;20055;-69
2023/02/28 07:21:36;;;;;;;12.57;10.43;;;3.70;99.90;;;3.79;86.80;103015.88;5033157;28;20037;-69
2023/02/28 07:24:04;;;;;;;14.87;11.10;;;3.60;99.90;;;3.74;86.22;103012.06;5033178;28;20037;-69
2023/02/28 07:26:34;;;;;;;16.60;11.37;;;3.60;99.90;;;3.62;86.78;103017.50;5032975;28;20042;-68
2023/02/28 07:29:03;;;;;;;15.05;10.63;;;3.50;99.90;;;3.33;87.73;103020.16;5033619;28;20049;-69
2023/02/28 07:31:31;;;;;;;13.57;10.77;;;3.30;99.90;;;3.18;89.76;103027.97;5032849;28;20120;-69
2023/02/28 07:34:00;;;;;;;13.30;10.63;;;3.10;99.90;;;3.05;91.50;103020.22;5033101;28;20053;-69
2023/02/28 07:36:28;;;;;;;16.60;11.20;;;3.00;99.90;;;3.19;92.33;103023.66;5031822;28;20041;-69
2023/02/28 07:38:57;;;;;;;15.33;12.07;;;3.00;99.90;;;2.90;94.02;103028.84;5032760;28;20042;-69
2023/02/28 07:41:27;;;;;;;18.83;11.23;;;2.80;99.90;;;2.81;95.95;103039.63;5032656;28;20487;-69
2023/02/28 07:43:59;;;;;;;16.43;12.57;;;2.70;99.90;;;2.64;97.17;103038.59;5031454;28;20080;-68
2023/02/28 07:46:29;;;;;;;18.10;13.27;;;2.60;99.90;;;2.55;98.08;103039.72;5032747;28;20050;-69
2023/02/28 07:48:59;;;;;;;14.97;12.00;;;2.50;99.90;;;2.49;98.36;103040.25;5033010;28;20049;-68
2023/02/28 07:51:27;;;;;;;17.70;12.37;;;2.40;99.90;;;2.77;100.00;103041.97;5032981;28;20045;-69
2023/02/28 07:53:56;;;;;;;13.47;12.07;;;2.50;99.90;;;2.82;100.00;103035.31;5032911;28;20432;-69
2023/02/28 07:56:24;;;;;;;18.33;13.53;;;2.70;99.90;;;3.01;100.00;103035.63;5031303;28;20037;-69
2023/02/28 07:58:53;;;;;;;21.37;13.73;;;2.80;99.90;;;2.93;99.62;103036.84;5031440;28;20045;-69
2023/02/28 08:01:23;;;;;;;18.23;13.03;;;2.80;99.90;;;3.03;99.75;103034.91;5032545;28;20102;-69
2023/02/28 08:03:51;;;;;;;16.67;13.55;;;2.80;99.90;;;3.13;99.63;103044.22;5032808;28;20071;-69
2023/02/28 08:06:22;;;;;;;15.73;13.93;;;2.90;99.90;;;2.96;99.61;103019.63;5031540;28;20033;-69
2023/02/28 08:08:51;;;;;;;18.37;12.63;;;3.00;99.90;;;2.89;99.14;103025.31;5032556;28;20072;-70
2023/02/28 08:11:20;;;;;;;14.77;12.70;;;2.90;99.90;;;2.97;99.65;103046.69;5032780;28;20480;-69
2023/02/28 08:13:48;;;;;;;14.80;13.13;;;2.80;99.90;;;3.03;99.82;103044.47;5032492;28;20073;-69
2023/02/28 08:16:21;;;;;;;16.37;14.03;;;2.90;99.90;;;3.18;100.00;103042.75;5032982;28;20049;-69
2023/02/28 08:18:52;;;;;;;16.20;13.30;;;3.00;99.90;;;3.32;99.47;103045.41;5032455;28;20045;-70
2023/02/28 08:21:21;;;;;;;;;;;3.10;99.90;;;3.17;99.50;103040.97;5033169;28;20045;-69
2023/02/28 08:23:50;;;;;;;17.03;12.20;;;3.00;99.90;;;3.11;99.45;103009.22;5032893;28;19928;-69
2023/02/28 08:26:20;;;;;;;17.40;13.33;;;3.10;99.90;;;3.24;99.01;103054.50;5031216;28;20113;-69
2023/02/28 08:28:48;;;;;;;14.43;12.93;;;3.10;99.90;;;3.05;99.45;103048.06;5032198;28;20049;-69
2023/02/28 08:31:17;;;;;;;13.50;12.10;;;2.90;99.90;;;3.19;99.93;103050.72;5030904;28;20140;-70
2023/02/28 08:33:48;;;;;;;13.53;12.13;;;3.00;99.90;;;2.92;100.00;103058.59;5032814;28;20072;-69
2023/02/28 08:36:19;;;;;;;13.87;12.33;;;2.70;99.90;;;2.85;100.00;103057.31;5032299;28;20041;-68
2023/02/28 08:38:48;;;;;;;14.67;11.60;;;2.70;99.90;;;3.00;100.00;103058.22;5032439;28;20073;-69
2023/02/28 08:41:16;;;;;;;13.97;12.47;;;2.80;99.90;;;2.86;100.00;103052.97;5031758;28;20053;-68
2023/02/28 08:43:44;;;;;;;14.30;12.80;;;2.70;99.90;;;2.69;100.00;103054.56;5032548;28;20067;-69
2023/02/28 08:46:14;;;;;;;14.00;12.53;;;2.50;99.90;;;2.55;100.00;103051.09;5032071;28;20034;-69
2023/02/28 08:48:43;;;;;;;15.13;13.63;;;2.40;99.90;;;2.50;100.00;103044.66;5032024;28;20051;-69
2023/02/28 08:51:16;;;;;;;13.60;12.30;;;2.40;99.90;;;2.79;100.00;103043.84;5032040;28;20049;-69
2023/02/28 08:53:46;;;;;;;13.87;12.47;;;2.50;99.90;;;3.32;100.00;103039.25;5032360;28;20045;-68
2023/02/28 08:56:17;;;;;;;14.10;12.70;;;2.90;99.90;;;3.50;100.00;103041.25;5034518;28;20037;-68
2023/02/28 08:58:47;;;;;;;14.40;12.93;;;3.20;99.90;;;3.55;100.00;103033.66;5035655;28;20092;-69
2023/02/28 09:01:18;;;;;;;13.38;12.00;;;3.30;99.90;;;3.83;100.00;103036.19;5035774;28;20504;-68
2023/02/28 09:03:48;;;;;;;13.67;12.23;;;3.60;99.90;;;4.00;100.00;103036.34;5035879;28;20553;-69
2023/02/28 09:06:20;;;;;;;15.38;13.77;;;3.70;99.90;;;4.05;99.75;103027.00;5036068;28;20056;-69
2023/02/28 09:08:51;;;;;;;13.73;12.33;;;3.80;99.90;;;4.31;99.05;103037.25;5036052;28;20136;-68
2023/02/28 09:11:20;;;;;;;13.93;12.17;;;4.10;99.90;;;4.53;98.51;103041.91;5035721;28;20041;-69
2023/02/28 09:13:48;;;;;;;13.80;12.40;;;4.30;99.90;;;4.74;97.84;103042.19;5035580;28;20496;-69
2023/02/28 09:16:18;;;;;;;12.37;11.07;;;4.50;99.90;;;4.89;97.00;103041.31;5035629;28;20292;-69
2023/02/28 09:18:46;;;;;;;11.10;10.00;;;4.70;99.90;;;5.11;96.93;103038.09;5035478;28;20052;-68
2023/02/28 09:21:18;;;;;;;11.93;10.70;;;4.90;99.90;;;5.22;95.40;103026.44;5035489;28;20045;-69
2023/02/28 09:23:50;;;;;;;12.50;11.30;;;5.00;99.90;;;5.20;94.45;103028.97;5035513;28;20033;-69
2023/02/28 09:26:20;;;;;;;11.80;10.70;;;5.00;99.90;;;5.26;94.13;103017.91;5035405;28;20065;-69
2023/02/28 09:28:50;;;;;;;13.00;10.97;;;5.20;99.90;;;5.47;92.87;103047.84;5035646;28;20111;-69
2023/02/28 09:31:21;;;;;;;11.77;10.50;;;5.20;99.90;;;5.63;92.52;103036.41;5035456;28;20495;-69
2023/02/28 09:33:51;;;;;;;12.10;10.80;;;5.40;99.90;;;5.68;91.25;103030.56;5035175;28;20053;-69
2023/02/28 09:36:21;;;;;;;11.43;9.88;;;5.50;99.90;;;5.64;90.90;103035.56;5035723;28;20091;-69
2023/02/28 09:38:53;;;;;;;10.52;9.45;;;5.40;99.90;;;5.81;90.29;103039.94;5035018;28;20046;-69
2023/02/28 09:41:25;;;;;;;12.25;10.15;;;5.50;99.90;;;5.82;89.33;103033.88;5035107;28;20540;-69
2023/02/28 09:43:56;;;;;;;13.07;9.90;;;5.60;99.90;;;5.91;89.22;103037.88;5034932;28;20037;-69
2023/02/28 09:46:34;;;;;;;10.87;9.77;;;5.70;99.90;;;5.83;88.30;103010.34;5034904;28;20412;-69
2023/02/28 09:49:08;;;;;;;13.37;10.23;;;5.80;99.90;;;5.93;87.67;103003.81;5034706;28;20045;-69
2023/02/28 09:51:50;;;;;;;13.05;10.13;;;5.90;99.90;;;6.11;87.15;103042.41;5034858;28;20120;-69
2023/02/28 09:54:23;;;;;;;15.20;10.05;;;5.90;99.90;;;5.78;86.46;103034.53;5034795;28;20061;-69
2023/02/28 09:56:57;;;;;;;11.53;9.27;;;5.60;99.90;;;5.29;85.87;103031.16;5034811;28;20046;-69
2023/02/28 09:59:43;;;;;;;16.03;9.20;;;5.20;99.90;;;5.03;86.72;103037.66;5034815;28;20124;-69
2023/02/28 10:02:33;;;;;;;13.43;8.23;;;4.80;99.90;;;5.05;87.12;103032.53;5035338;28;20057;-69
2023/02/28 10:05:09;;;;;;;12.07;8.23;;;4.80;99.90;;;4.66;86.92;103041.78;5034705;28;20408;-69
2023/02/28 10:07:55;;;;;;;8.67;7.77;;;4.50;99.90;;;4.39;85.98;103043.78;5034302;28;20042;-69
2023/02/28 10:10:29;;;;;;;10.80;8.13;;;4.30;99.90;;;4.83;87.08;103050.53;5034842;28;20445;-68
2023/02/28 10:13:03;;;;;;;9.83;8.83;;;4.50;99.90;;;4.25;87.53;103038.59;5034795;28;20050;-68
2023/02/28 10:15:35;;;;;;;9.73;8.80;;;4.20;99.90;;;3.87;88.78;103051.25;5034554;28;20496;-68
2023/02/28 10:18:06;;;;;;;11.77;8.73;;;3.80;99.90;;;3.89;89.86;103026.06;5034432;28;20112;-68
2023/02/28 10:20:40;;;;;;;13.20;9.50;;;3.80;99.90;;;4.00;91.10;103043.28;5034622;28;20049;-68
2023/02/28 10:23:18;;;;;;;11.47;10.10;;;3.80;99.90;;;3.97;92.50;103036.13;5033376;28;20488;-68
2023/02/28 10:25:56;;;;;;;11.47;10.33;;;3.80;99.90;;;3.92;93.91;103042.84;5034862;28;20046;-68
2023/02/28 10:28:27;;;;;;;15.07;11.50;;;3.70;99.90;;;3.81;93.80;103036.09;5034282;28;20041;-69
2023/02/28 10:30:56;;;;;;;12.77;10.83;;;3.70;99.90;;;3.94;94.63;103038.59;5034208;28;20052;-68
2023/02/28 10:33:30;;;;;;;14.90;11.57;;;3.70;99.90;;;4.21;94.91;103036.63;5034446;28;20125;-69
2023/02/28 10:35:59;;;;;;;15.73;10.73;;;4.00;99.90;;;4.19;93.97;103035.63;5033125;28;20037;-68
2023/02/28 10:38:33;;;;;;;11.80;10.30;;;4.00;99.90;;;4.42;92.84;103028.25;5034343;28;20488;-68